Time;durP1;ratioP1;P1;durP2;ratioP2;P2;SDS_P1;SDS_P2;PMS_P1;PMS_P2;Temp;Humidity;BMP_temperature;BMP_pressure;BME280_temperature;BME280_humidity;BME280_pressure;Samples;Min_cycle;Max_cycle;Signal;HPM_P1;HPM_P2
2021/04/30 07:20:25;;;;;;;1.90;1.58;;;;;;;;;;5094116;23;20426;-91
2021/04/30 07:22:51;;;;;;;0.60;0.40;;;9.30;99.90;;;;;;5035716;28;20440;-91
2021/04/30 07:25:18;;;;;;;1.77;1.17;;;11.20;99.90;;;;;;5035360;28;20079;-90
2021/04/30 07:27:45;;;;;;;0.68;0.52;;;13.30;99.90;;;;;;5035208;28;20045;-89
2021/04/30 07:30:12;;;;;;;2.15;0.70;;;15.00;99.90;;;;;;5035004;28;20595;-88
2021/04/30 07:32:39;;;;;;;2.08;1.60;;;15.80;97.30;;;;;;5034804;28;20454;-88
2021/04/30 07:35:07;;;;;;;1.65;1.08;;;16.40;99.10;;;;;;5034919;28;20144;-86
2021/04/30 07:37:34;;;;;;;1.13;0.68;;;16.80;98.40;;;;;;5034789;28;20050;-86
2021/04/30 07:40:01;;;;;;;1.75;1.48;;;17.20;96.90;;;;;;5034650;28;20045;-86
2021/04/30 07:42:27;;;;;;;3.28;1.15;;;17.70;94.00;;;;;;5034953;28;20060;-87
2021/04/30 07:44:54;;;;;;;0.80;0.80;;;17.40;83.70;;;;;;5034659;28;20108;-86
2021/04/30 07:47:20;;;;;;;1.13;0.50;;;17.40;95.70;;;;;;5034725;28;20367;-86
2021/04/30 07:49:47;;;;;;;0.95;0.60;;;16.70;83.70;;;;;;5035029;28;20115;-86
2021/04/30 07:52:14;;;;;;;2.00;0.80;;;15.80;90.30;;;;;;5034971;28;20045;-86
2021/04/30 07:54:41;;;;;;;0.95;0.50;;;15.50;95.70;;;;;;5034587;28;20058;-86
2021/04/30 07:57:08;;;;;;;1.70;0.70;;;15.40;96.20;;;;;;5034364;28;20041;-86
2021/04/30 07:59:35;;;;;;;0.95;0.50;;;14.80;97.30;;;;;;5034892;28;20135;-87
2021/04/30 08:02:03;;;;;;;0.32;0.22;;;13.70;99.90;;;;;;5034495;28;20053;-88
2021/04/30 08:04:29;;;;;;;3.15;1.33;;;12.80;99.90;;;;;;5034495;28;20053;-88
2021/04/30 08:06:56;;;;;;;0.65;0.57;;;12.00;99.90;;;;;;5034831;28;20216;-88
2021/04/30 08:09:23;;;;;;;0.85;0.30;;;11.40;99.90;;;;;;5034508;28;20386;-89
2021/04/30 08:11:50;;;;;;;3.00;0.75;;;10.80;99.90;;;;;;5034674;28;20139;-89
2021/04/30 08:14:17;;;;;;;3.72;0.60;;;10.30;99.90;;;;;;5034825;28;20054;-90
2021/04/30 08:16:43;;;;;;;0.60;0.60;;;9.80;99.90;;;;;;5034602;28;20042;-90
2021/04/30 08:19:10;;;;;;;1.50;1.02;;;9.50;99.90;;;;;;5034617;28;20068;-90
2021/04/30 08:21:36;;;;;;;;;;;9.30;99.90;;;;;;5035142;28;20119;-91
2021/04/30 08:24:03;;;;;;;;;;;9.10;99.90;;;;;;5035324;28;19967;-91
2021/04/30 08:26:29;;;;;;;;;;;9.00;99.90;;;;;;5035098;28;19921;-91
2021/04/30 08:28:57;;;;;;;;;;;8.90;99.90;;;;;;5035321;28;19925;-92
2021/04/30 08:31:23;;;;;;;;;;;8.80;99.90;;;;;;5035119;28;19921;-91
2021/04/30 08:33:50;;;;;;;;;;;8.70;99.90;;;;;;5034912;28;20265;-91
2021/04/30 08:36:16;;;;;;;;;;;8.60;99.90;;;;;;5035209;28;19925;-91
2021/04/30 08:38:42;;;;;;;;;;;8.50;99.90;;;;;;5034970;28;20342;-90
2021/04/30 08:41:09;;;;;;;;;;;8.50;99.90;;;;;;5035085;28;20383;-90
2021/04/30 08:43:36;;;;;;;;;;;8.50;99.90;;;;;;5035141;28;19963;-91
2021/04/30 08:46:03;;;;;;;;;;;8.50;99.90;;;;;;5038510;28;19932;-90
2021/04/30 08:48:29;;;;;;;;;;;8.60;99.90;;;;;;5039294;28;19963;-90
2021/04/30 08:50:56;;;;;;;;;;;8.60;99.90;;;;;;5040580;28;19921;-89
2021/04/30 08:53:34;;;;;;;;;;;8.50;99.90;;;;;;5040989;28;19921;-90
2021/04/30 09:27:43;;;;;;;;;;;8.70;99.90;;;;;;5158058;23;19958;-88
2021/04/30 09:33:13;;;;;;;;;;;8.80;99.90;;;;;;5040509;28;19971;-89
2021/04/30 09:35:40;;;;;;;;;;;8.80;99.90;;;;;;5038186;28;19972;-90
2021/04/30 09:41:10;;;;;;;;;;;8.90;99.90;;;;;;5038754;28;19924;-88
2021/04/30 09:43:41;;;;;;;;;;;9.00;99.90;;;;;;5037934;28;19920;-92
2021/04/30 09:46:21;;;;;;;;;;;9.10;99.90;;;;;;5037659;28;19921;-91
2021/04/30 09:49:00;;;;;;;;;;;9.20;99.90;;;;;;5037677;28;20257;-90
2021/04/30 09:51:45;;;;;;;;;;;9.20;99.90;;;;;;5037641;28;19921;-92
2021/04/30 09:54:20;;;;;;;0.10;0.10;;;9.10;99.90;;;;;;5037162;28;19925;-92
2021/04/30 09:56:47;;;;;;;1.23;0.50;;;9.10;99.90;;;;;;5037171;28;20156;-92
2021/04/30 09:59:23;;;;;;;0.40;0.40;;;9.00;99.90;;;;;;5037101;28;20049;-91
2021/04/30 10:02:08;;;;;;;0.20;0.20;;;8.90;99.90;;;;;;5037031;28;20049;-91
2021/04/30 10:04:35;;;;;;;0.43;0.17;;;8.90;99.90;;;;;;5036885;28;20528;-92
2021/04/30 10:07:03;;;;;;;0.15;0.15;;;9.00;99.90;;;;;;5036747;28;20492;-92
2021/04/30 10:09:30;;;;;;;0.20;0.20;;;8.90;99.90;;;;;;5036861;28;20049;-92
2021/04/30 10:11:56;;;;;;;0.80;0.10;;;8.90;99.90;;;;;;5036503;28;20111;-92
2021/04/30 10:14:24;;;;;;;0.73;0.32;;;8.90;99.90;;;;;;5036887;28;20056;-92
2021/04/30 10:16:51;;;;;;;0.25;0.25;;;8.90;99.90;;;;;;5036774;28;20060;-92
2021/04/30 10:19:18;;;;;;;0.20;0.20;;;9.00;99.90;;;;;;5036690;28;20377;-92
2021/04/30 10:21:45;;;;;;;0.30;0.30;;;9.10;99.90;;;;;;5036490;28;20045;-91
2021/04/30 10:24:14;;;;;;;0.47;0.35;;;9.20;99.90;;;;;;5036588;28;20053;-91
2021/04/30 10:26:40;;;;;;;0.20;0.20;;;9.30;99.90;;;;;;5036148;28;20063;-91
2021/04/30 10:29:09;;;;;;;1.33;0.68;;;9.20;99.90;;;;;;5036519;28;20045;-91
2021/04/30 10:31:38;;;;;;;0.20;0.20;;;9.10;99.90;;;;;;5034902;28;20053;-92
2021/04/30 10:34:06;;;;;;;0.20;0.20;;;9.10;99.90;;;;;;5036310;28;20060;-92
2021/04/30 10:36:35;;;;;;;0.85;0.35;;;9.10;99.90;;;;;;5035816;28;20049;-91
2021/04/30 10:39:04;;;;;;;0.40;0.40;;;9.10;99.90;;;;;;5035947;28;20059;-91
2021/04/30 10:41:34;;;;;;;0.20;0.20;;;9.10;99.90;;;;;;5036225;28;20053;-91
2021/04/30 10:44:12;;;;;;;0.22;0.22;;;9.10;99.90;;;;;;5036018;28;20045;-91
2021/04/30 10:46:39;;;;;;;0.93;0.35;;;9.00;99.90;;;;;;5035984;28;20110;-90
2021/04/30 10:49:17;;;;;;;0.55;0.55;;;8.90;99.90;;;;;;5035831;28;20064;-91
2021/04/30 10:51:45;;;;;;;0.15;0.10;;;8.90;99.90;;;;;;5036082;28;20128;-91
2021/04/30 10:54:24;;;;;;;2.58;1.58;;;8.90;99.90;;;;;;5035418;28;20049;-91
2021/04/30 10:56:57;;;;;;;0.30;0.20;;;9.00;99.90;;;;;;5035723;28;20059;-92
2021/04/30 10:59:27;;;;;;;0.43;0.30;;;9.10;99.90;;;;;;5035842;28;20103;-91
2021/04/30 11:02:02;;;;;;;8.10;0.30;;;9.10;99.90;;;;;;5035669;28;20049;-92
2021/04/30 11:04:28;;;;;;;0.30;0.20;;;9.20;99.90;;;;;;5035688;28;20049;-91
2021/04/30 11:06:55;;;;;;;0.30;0.20;;;9.20;99.90;;;;;;5035360;28;20041;-93
2021/04/30 11:09:33;;;;;;;0.20;0.20;;;9.30;99.90;;;;;;5035848;28;20257;-92
2021/04/30 11:12:00;;;;;;;0.22;0.22;;;9.30;99.90;;;;;;5035849;28;20073;-92
2021/04/30 11:14:31;;;;;;;0.30;0.25;;;9.30;99.90;;;;;;5035669;28;20046;-90
2021/04/30 11:16:59;;;;;;;1.10;0.73;;;9.40;99.90;;;;;;5035243;28;20048;-90
2021/04/30 11:19:27;;;;;;;0.00;0.00;;;9.50;99.90;;;;;;5035204;28;20049;-90
2021/04/30 11:21:54;;;;;;;0.20;0.20;;;9.50;99.90;;;;;;5035113;28;20103;-90
2021/04/30 11:24:34;;;;;;;0.50;0.43;;;9.50;99.90;;;;;;5035404;28;20057;-91
2021/04/30 11:27:35;;;;;;;0.40;0.40;;;9.60;99.90;;;;;;5034784;28;20053;-90
2021/04/30 11:30:23;;;;;;;0.40;0.40;;;9.60;99.90;;;;;;5035029;28;20053;-91
2021/04/30 11:32:57;;;;;;;;;;;9.70;99.90;;;;;;5035758;28;20114;-90
2021/04/30 11:35:24;;;;;;;;;;;9.80;99.90;;;;;;5035424;28;19931;-91
2021/04/30 11:37:50;;;;;;;;;;;9.90;99.90;;;;;;5035317;28;20451;-90
2021/04/30 11:40:16;;;;;;;;;;;10.00;99.90;;;;;;5035292;28;20010;-89
2021/04/30 11:42:43;;;;;;;;;;;10.00;99.90;;;;;;5035363;28;19921;-91
2021/04/30 11:45:10;;;;;;;;;;;10.00;99.90;;;;;;5034817;28;19925;-91
2021/04/30 11:47:37;;;;;;;;;;;10.00;99.90;;;;;;5034793;28;20363;-94
2021/04/30 11:50:05;;;;;;;;;;;10.00;99.90;;;;;;5035753;28;19921;-94
2021/04/30 11:52:32;;;;;;;;;;;10.10;99.90;;;;;;5036871;28;19986;-94
2021/04/30 11:55:02;;;;;;;;;;;10.10;99.90;;;;;;5035343;28;19920;-91
2021/04/30 11:57:29;;;;;;;;;;;10.10;99.90;;;;;;5035196;28;19986;-89
2021/04/30 11:59:56;;;;;;;;;;;10.20;99.90;;;;;;5035009;28;20011;-89
2021/04/30 12:02:24;;;;;;;;;;;10.10;99.90;;;;;;5035195;28;19932;-89
2021/04/30 12:04:51;;;;;;;;;;;10.10;99.90;;;;;;5034899;28;20372;-88
2021/04/30 12:07:19;;;;;;;;;;;10.10;99.90;;;;;;5035151;28;19929;-89
2021/04/30 12:09:45;;;;;;;;;;;10.00;99.90;;;;;;5035055;28;20003;-89
2021/04/30 12:12:21;;;;;;;;;;;9.90;99.90;;;;;;5035149;28;20326;-89
2021/04/30 12:14:59;;;;;;;0.77;0.40;;;9.70;99.90;;;;;;5033329;28;20432;-89
2021/04/30 12:17:35;;;;;;;;;;;9.60;99.90;;;;;;5034905;28;20183;-89
2021/04/30 12:20:04;;;;;;;;;;;9.50;99.90;;;;;;5036751;28;19920;-89
2021/04/30 12:22:31;;;;;;;;;;;9.50;99.90;;;;;;5038979;28;19921;-89
2021/04/30 12:25:16;;;;;;;;;;;9.50;99.90;;;;;;5038651;28;19987;-90
2021/04/30 12:27:43;;;;;;;;;;;9.40;99.90;;;;;;5038442;28;19928;-90
2021/04/30 12:30:09;;;;;;;;;;;9.30;99.90;;;;;;5038799;28;19921;-89
2021/04/30 12:32:36;;;;;;;;;;;9.30;99.90;;;;;;5038630;28;19932;-89
2021/04/30 12:35:02;;;;;;;;;;;9.40;99.90;;;;;;5038701;28;19929;-90
2021/04/30 12:37:28;;;;;;;;;;;9.50;99.90;;;;;;5038654;28;19921;-89
2021/04/30 12:39:55;;;;;;;;;;;9.60;99.90;;;;;;5038467;28;19931;-89
2021/04/30 12:42:22;;;;;;;;;;;9.70;99.90;;;;;;5038556;28;20238;-89
2021/04/30 12:44:50;;;;;;;;;;;9.80;99.90;;;;;;5038226;28;19929;-89
2021/04/30 12:47:16;;;;;;;;;;;9.90;99.90;;;;;;5038139;28;20400;-89
2021/04/30 12:49:42;;;;;;;;;;;9.90;99.90;;;;;;5038319;28;19925;-89
2021/04/30 12:52:09;;;;;;;;;;;9.90;99.90;;;;;;5038327;28;19921;-89
2021/04/30 12:54:35;;;;;;;;;;;9.90;99.90;;;;;;5038109;28;19968;-89
2021/04/30 12:57:07;;;;;;;;;;;10.00;99.90;;;;;;5038212;28;20250;-89
2021/04/30 12:59:34;;;;;;;;;;;10.00;99.90;;;;;;5038170;28;20392;-89
2021/04/30 13:02:06;;;;;;;;;;;10.00;99.90;;;;;;5038019;28;19928;-91
2021/04/30 13:04:33;;;;;;;;;;;10.00;99.90;;;;;;5037876;28;20176;-90
2021/04/30 13:06:59;;;;;;;;;;;10.20;99.90;;;;;;5038204;28;19932;-90
2021/04/30 13:09:25;;;;;;;;;;;10.20;99.90;;;;;;5037892;28;20337;-89
2021/04/30 13:11:58;;;;;;;;;;;10.30;99.90;;;;;;5042899;28;19932;-89
2021/04/30 13:14:25;;;;;;;;;;;10.30;99.90;;;;;;5037609;28;20349;-88
2021/04/30 13:16:52;;;;;;;;;;;10.30;99.90;;;;;;5037717;28;19955;-88
2021/04/30 13:19:19;;;;;;;;;;;10.20;99.90;;;;;;5037578;28;19972;-88
2021/04/30 13:21:46;;;;;;;;;;;10.10;99.90;;;;;;5037110;28;19921;-88
2021/04/30 13:24:16;;;;;;;;;;;10.00;99.90;;;;;;5037442;28;19925;-88
2021/04/30 13:26:42;;;;;;;;;;;9.90;99.90;;;;;;5037375;28;19921;-88
2021/04/30 13:29:10;;;;;;;;;;;9.90;99.90;;;;;;5037641;28;20245;-89
2021/04/30 13:31:37;;;;;;;;;;;9.90;99.90;;;;;;5037062;28;19996;-89
2021/04/30 13:34:04;;;;;;;;;;;9.80;99.90;;;;;;5037371;28;20304;-89
2021/04/30 13:36:30;;;;;;;;;;;9.80;99.90;;;;;;5037335;28;19921;-89
2021/04/30 13:38:58;;;;;;;;;;;9.90;99.90;;;;;;5037285;28;19982;-89
2021/04/30 13:41:25;;;;;;;;;;;9.90;99.90;;;;;;5037261;28;19928;-88
2021/04/30 13:43:51;;;;;;;;;;;9.90;99.90;;;;;;5036089;28;19924;-88
2021/04/30 13:46:18;;;;;;;;;;;9.90;99.90;;;;;;5042999;28;19970;-90
2021/04/30 13:48:46;;;;;;;;;;;9.80;99.90;;;;;;5037161;28;19921;-90
2021/04/30 13:51:12;;;;;;;;;;;9.80;99.90;;;;;;5037163;28;19933;-88
2021/04/30 13:53:39;;;;;;;;;;;9.80;99.90;;;;;;5036941;28;19983;-88
2021/04/30 13:56:06;;;;;;;;;;;9.80;99.90;;;;;;5037209;28;19925;-89
2021/04/30 13:58:32;;;;;;;;;;;9.90;98.70;;;;;;5036266;28;19932;-89
2021/04/30 14:00:58;;;;;;;;;;;9.90;94.30;;;;;;5036381;28;19921;-89
2021/04/30 14:03:25;;;;;;;;;;;10.00;96.60;;;;;;5037105;28;19921;-88
2021/04/30 14:05:52;;;;;;;;;;;10.00;98.30;;;;;;5036772;28;19921;-88
2021/04/30 14:08:18;;;;;;;;;;;10.10;99.90;;;;;;5036611;28;19929;-89
2021/04/30 14:10:48;;;;;;;;;;;10.10;99.20;;;;;;5036703;28;19921;-88
2021/04/30 14:13:15;;;;;;;;;;;10.20;87.40;;;;;;5036804;28;19928;-88
2021/04/30 14:15:41;;;;;;;;;;;10.20;95.50;;;;;;5036371;28;19921;-89
2021/04/30 14:18:07;;;;;;;;;;;10.20;96.10;;;;;;5036663;28;19921;-89
2021/04/30 14:20:34;;;;;;;;;;;10.30;94.60;;;;;;5036472;28;19932;-88
2021/04/30 14:23:01;;;;;;;;;;;10.40;93.70;;;;;;5036548;28;19921;-89
2021/04/30 14:25:28;;;;;;;;;;;10.40;94.20;;;;;;5036608;28;19927;-88
2021/04/30 14:27:54;;;;;;;;;;;10.40;97.60;;;;;;5036204;28;19920;-89
2021/04/30 14:30:20;;;;;;;;;;;10.50;91.30;;;;;;5036500;28;19972;-89
2021/04/30 14:32:47;;;;;;;;;;;10.50;93.10;;;;;;5035395;28;19947;-88
2021/04/30 14:35:13;;;;;;;;;;;10.50;93.50;;;;;;5035805;28;19920;-89
2021/04/30 14:37:40;;;;;;;;;;;10.60;95.80;;;;;;5035518;28;19936;-89
2021/04/30 14:40:07;;;;;;;;;;;10.60;95.70;;;;;;5036231;28;19931;-88
2021/04/30 14:42:33;;;;;;;;;;;10.60;93.80;;;;;;5035166;28;19921;-88
2021/04/30 14:45:00;;;;;;;;;;;10.50;95.60;;;;;;5036178;28;19921;-88
2021/04/30 14:47:26;;;;;;;;;;;10.50;92.40;;;;;;5035884;28;19925;-89
2021/04/30 14:49:52;;;;;;;;;;;10.40;94.80;;;;;;5035741;28;19925;-89
2021/04/30 14:52:19;;;;;;;;;;;10.30;90.90;;;;;;5036077;28;19966;-89
2021/04/30 14:54:45;;;;;;;;;;;10.20;90.10;;;;;;5036027;28;20258;-89
2021/04/30 14:57:12;;;;;;;;;;;10.10;93.10;;;;;;5035917;28;20245;-89
2021/04/30 14:59:39;;;;;;;;;;;10.10;91.20;;;;;;5035740;28;19931;-89
2021/04/30 15:02:05;;;;;;;;;;;10.00;94.10;;;;;;5035523;28;19925;-89
2021/04/30 15:04:31;;;;;;;;;;;10.00;93.60;;;;;;5035576;28;19921;-88
2021/04/30 15:06:58;;;;;;;;;;;9.90;97.00;;;;;;5035780;28;19967;-89
2021/04/30 15:09:24;;;;;;;;;;;9.90;98.30;;;;;;5035450;28;19928;-89
2021/04/30 15:11:51;;;;;;;;;;;9.80;99.60;;;;;;5035665;28;19931;-89
2021/04/30 15:14:19;;;;;;;;;;;9.80;99.90;;;;;;5035771;28;19931;-89
2021/04/30 15:16:45;;;;;;;;;;;9.80;99.90;;;;;;5035385;28;19921;-89
2021/04/30 15:19:12;;;;;;;;;;;9.70;99.90;;;;;;5035726;28;19982;-89
2021/04/30 15:21:38;;;;;;;;;;;9.70;97.80;;;;;;5035695;28;19921;-89
2021/04/30 15:24:05;;;;;;;;;;;9.80;98.80;;;;;;5035238;28;19925;-89
2021/04/30 15:26:31;;;;;;;;;;;9.80;98.30;;;;;;5035251;28;19921;-89
2021/04/30 15:28:57;;;;;;;;;;;9.80;99.10;;;;;;5035592;28;19931;-89
2021/04/30 15:31:25;;;;;;;;;;;9.80;98.70;;;;;;5035544;28;19929;-89
2021/04/30 15:33:52;;;;;;;;;;;9.80;94.00;;;;;;5035157;28;20358;-89
2021/04/30 15:36:19;;;;;;;;;;;9.90;99.90;;;;;;5035337;28;19928;-89
2021/04/30 15:38:45;;;;;;;;;;;9.90;99.90;;;;;;5035139;28;19925;-89
2021/04/30 15:41:11;;;;;;;;;;;9.90;99.90;;;;;;5035075;28;19925;-89
2021/04/30 15:43:38;;;;;;;;;;;9.90;99.90;;;;;;5035100;28;19932;-89
2021/04/30 15:46:04;;;;;;;;;;;9.90;99.90;;;;;;5035372;28;19932;-90
2021/04/30 15:48:31;;;;;;;;;;;10.00;99.90;;;;;;5035347;28;20272;-90
2021/04/30 15:50:57;;;;;;;;;;;10.00;99.90;;;;;;5035014;28;19975;-89
2021/04/30 15:53:24;;;;;;;;;;;10.10;99.90;;;;;;5037169;28;19921;-89
2021/04/30 15:55:50;;;;;;;;;;;10.10;99.90;;;;;;5042006;28;19921;-89
2021/04/30 15:58:16;;;;;;;;;;;10.10;99.90;;;;;;5041812;28;19931;-89
2021/04/30 16:00:43;;;;;;;;;;;10.10;99.90;;;;;;5041706;28;20269;-89
2021/04/30 16:03:09;;;;;;;;;;;10.10;99.90;;;;;;5041789;28;19978;-90
2021/04/30 16:05:36;;;;;;;;;;;10.20;99.90;;;;;;5041751;28;19950;-89
2021/04/30 16:08:03;;;;;;;;;;;10.20;99.90;;;;;;5041430;28;19935;-89
2021/04/30 16:10:29;;;;;;;;;;;10.10;99.90;;;;;;5041450;28;20261;-89
2021/04/30 16:12:55;;;;;;;;;;;10.00;99.90;;;;;;5041435;28;19921;-90
2021/04/30 16:15:22;;;;;;;;;;;9.90;99.90;;;;;;5041369;28;19948;-90
2021/04/30 16:17:48;;;;;;;;;;;9.90;99.90;;;;;;5041537;28;20249;-89
2021/04/30 16:20:16;;;;;;;;;;;9.80;99.90;;;;;;5041346;28;19921;-90
2021/04/30 16:22:43;;;;;;;;;;;9.80;99.90;;;;;;5041217;28;20347;-89
2021/04/30 16:25:10;;;;;;;;;;;9.70;99.90;;;;;;5040074;28;19994;-89
2021/04/30 16:27:36;;;;;;;;;;;9.70;99.90;;;;;;5041146;28;20004;-89
2021/04/30 16:30:03;;;;;;;;;;;9.60;99.90;;;;;;5041553;28;19956;-89
2021/04/30 16:32:29;;;;;;;;;;;9.60;99.90;;;;;;5041151;28;20444;-90
2021/04/30 16:34:55;;;;;;;;;;;9.60;99.90;;;;;;5041071;28;19931;-89
2021/04/30 16:37:24;;;;;;;;;;;9.50;99.90;;;;;;5040860;28;19920;-87
2021/04/30 16:39:51;;;;;;;;;;;9.60;99.90;;;;;;5041067;28;20360;-89
2021/04/30 16:42:18;;;;;;;;;;;9.60;99.90;;;;;;5041010;28;19921;-89
2021/04/30 16:44:44;;;;;;;;;;;9.60;99.90;;;;;;5040932;28;19925;-88
2021/04/30 16:47:10;;;;;;;;;;;9.60;99.90;;;;;;5041255;28;19921;-89
2021/04/30 16:49:37;;;;;;;;;;;9.60;99.90;;;;;;5041412;28;19921;-89
2021/04/30 16:52:03;;;;;;;;;;;9.60;99.90;;;;;;5040944;28;19921;-89
2021/04/30 16:54:36;;;;;;;;;;;9.60;99.90;;;;;;5041284;28;19921;-89
2021/04/30 16:57:03;;;;;;;;;;;9.50;99.90;;;;;;5041253;28;19925;-90
2021/04/30 16:59:30;;;;;;;;;;;9.50;99.90;;;;;;5041096;28;19921;-89
2021/04/30 17:01:57;;;;;;;;;;;9.40;99.90;;;;;;5040983;28;19921;-89
2021/04/30 17:04:25;;;;;;;;;;;9.30;99.90;;;;;;5040895;28;20265;-89
2021/04/30 17:06:51;;;;;;;;;;;9.30;99.90;;;;;;5037688;28;19921;-89
2021/04/30 17:09:17;;;;;;;;;;;9.20;99.90;;;;;;5038261;28;19921;-89
2021/04/30 17:11:44;;;;;;;;;;;9.20;99.90;;;;;;5037457;28;20360;-89
2021/04/30 17:14:11;;;;;;;;;;;9.10;99.90;;;;;;5037991;28;19931;-89
2021/04/30 17:16:37;;;;;;;;;;;9.00;99.90;;;;;;5038084;28;19931;-89
2021/04/30 17:19:04;;;;;;;;;;;9.00;99.90;;;;;;5037928;28;19921;-89
2021/04/30 17:21:30;;;;;;;;;;;9.00;99.90;;;;;;5037896;28;20254;-89
2021/04/30 17:23:57;;;;;;;;;;;8.90;99.90;;;;;;5037613;28;19920;-89
2021/04/30 17:26:24;;;;;;;;;;;8.90;99.90;;;;;;5037302;28;20337;-88
2021/04/30 17:28:50;;;;;;;;;;;8.80;99.90;;;;;;5037885;28;19943;-89
2021/04/30 17:31:17;;;;;;;;;;;8.80;99.90;;;;;;5037462;28;19920;-89
2021/04/30 17:33:44;;;;;;;;;;;8.80;99.90;;;;;;5037405;28;19951;-88
2021/04/30 17:36:10;;;;;;;;;;;8.80;99.90;;;;;;5037716;28;19924;-89
2021/04/30 17:38:38;;;;;;;;;;;8.80;99.90;;;;;;5037338;28;19921;-88
2021/04/30 17:41:04;;;;;;;;;;;8.80;99.90;;;;;;5037279;28;19921;-89
2021/04/30 17:43:30;;;;;;;;;;;8.80;99.90;;;;;;5037361;28;19921;-88
2021/04/30 17:45:57;;;;;;;;;;;8.80;99.90;;;;;;5037463;28;19921;-88
2021/04/30 17:48:24;;;;;;;;;;;8.70;99.90;;;;;;5037140;28;20346;-88
2021/04/30 17:50:50;;;;;;;;;;;8.70;99.90;;;;;;5037095;28;19982;-88
2021/04/30 17:53:17;;;;;;;;;;;8.70;99.90;;;;;;5037176;28;19948;-88
2021/04/30 17:55:43;;;;;;;;;;;8.70;99.90;;;;;;5037216;28;19925;-88
2021/04/30 17:58:09;;;;;;;;;;;8.60;99.90;;;;;;5036833;28;19987;-88
2021/04/30 18:00:36;;;;;;;;;;;8.60;99.90;;;;;;5036887;28;19931;-87
2021/04/30 18:03:02;;;;;;;;;;;8.60;99.90;;;;;;5037435;28;20360;-87
2021/04/30 18:05:30;;;;;;;;;;;8.50;99.90;;;;;;5036874;28;19921;-87
2021/04/30 18:07:56;;;;;;;;;;;8.50;99.90;;;;;;5036962;28;20227;-87
2021/04/30 18:10:25;;;;;;;;;;;8.40;99.90;;;;;;5036978;28;19925;-87
2021/04/30 18:12:52;;;;;;;;;;;8.40;99.90;;;;;;5038347;28;19925;-86
2021/04/30 18:15:18;;;;;;;;;;;8.30;99.90;;;;;;5037498;28;19921;-87
2021/04/30 18:17:44;;;;;;;;;;;8.30;99.90;;;;;;5036201;28;19921;-87
2021/04/30 18:20:12;;;;;;;;;;;8.20;99.90;;;;;;5037760;28;20358;-86
2021/04/30 18:22:39;;;;;;;;;;;8.20;99.90;;;;;;5037747;28;19920;-86
2021/04/30 18:25:06;;;;;;;;;;;8.20;99.90;;;;;;5037172;28;19925;-85
2021/04/30 18:27:32;;;;;;;;;;;8.20;99.90;;;;;;5038056;28;19947;-86
2021/04/30 18:29:59;;;;;;;;;;;8.20;99.90;;;;;;5039504;28;19921;-85
2021/04/30 18:32:25;;;;;;;;;;;8.20;99.90;;;;;;5040746;28;19979;-85
2021/04/30 18:34:51;;;;;;;;;;;8.10;99.90;;;;;;5042824;28;20353;-86
2021/04/30 18:37:18;;;;;;;;;;;8.10;99.90;;;;;;5046552;28;19982;-85
2021/04/30 18:39:45;;;;;;;;;;;8.10;99.90;;;;;;5049215;28;19921;-85
2021/04/30 18:42:20;;;;;;;;;;;8.00;99.90;;;;;;5054025;28;19928;-88
2021/04/30 18:44:48;;;;;;;;;;;8.10;99.90;;;;;;5054626;28;19985;-84
2021/04/30 18:47:14;;;;;;;;;;;8.00;99.90;;;;;;5037414;28;20342;-86
2021/04/30 18:49:40;;;;;;;;;;;7.90;99.90;;;;;;5036901;28;20281;-83
